createdAt,value
2023-04-06T00:01:04.161Z,19.97
2023-04-06T00:03:31.621Z,21.73
2023-04-06T00:05:58.644Z,20.00
2023-04-06T00:08:26.765Z,16.53
2023-04-06T00:10:53.802Z,18.90
2023-04-06T00:13:20.782Z,17.33
2023-04-06T00:15:47.838Z,19.67
2023-04-06T00:18:14.718Z,22.00
2023-04-06T00:20:41.721Z,17.80
2023-04-06T00:23:08.703Z,24.80
2023-04-06T00:25:35.564Z,22.30
2023-04-06T00:28:02.507Z,20.00
2023-04-06T00:30:29.382Z,18.03
2023-04-06T00:32:56.327Z,20.67
2023-04-06T00:35:23.366Z,18.90
2023-04-06T00:37:50.312Z,17.73
2023-04-06T00:40:17.454Z,16.23
2023-04-06T00:42:44.818Z,17.30
2023-04-06T00:45:12.167Z,17.80
2023-04-06T00:47:39.560Z,19.53
2023-04-06T00:50:06.965Z,21.10
2023-04-06T00:52:35.128Z,20.03
2023-04-06T00:55:02.145Z,19.13
2023-04-06T00:57:29.083Z,25.80
2023-04-06T00:59:56.252Z,19.70
2023-04-06T01:02:23.212Z,21.00
2023-04-06T01:04:50.230Z,20.90
2023-04-06T01:07:17.143Z,24.77
2023-04-06T01:09:44.075Z,18.30
2023-04-06T01:12:10.935Z,37.13
2023-04-06T01:14:37.864Z,18.03
2023-04-06T01:17:05.262Z,18.33
2023-04-06T01:19:32.304Z,20.17
2023-04-06T01:21:59.284Z,18.20
2023-04-06T01:24:26.283Z,21.23
2023-04-06T01:26:53.180Z,20.20
2023-04-06T01:29:20.097Z,20.40
2023-04-06T01:31:47.090Z,16.87
2023-04-06T01:34:14.141Z,18.17
2023-04-06T01:36:41.122Z,21.80
2023-04-06T01:39:08.405Z,19.27
2023-04-06T01:41:35.640Z,18.83
2023-04-06T01:44:03.682Z,17.33
2023-04-06T01:46:30.869Z,20.33
2023-04-06T01:48:57.744Z,20.70
2023-04-06T01:51:26.148Z,19.00
2023-04-06T01:53:53.177Z,20.27
2023-04-06T01:56:20.219Z,18.20
2023-04-06T01:58:47.095Z,18.47
2023-04-06T02:01:14.021Z,22.83
2023-04-06T02:03:40.896Z,20.67
2023-04-06T02:06:07.983Z,19.03
2023-04-06T02:08:34.904Z,22.23
2023-04-06T02:11:01.864Z,26.30
2023-04-06T02:13:28.817Z,27.43
2023-04-06T02:15:55.805Z,19.37
2023-04-06T02:18:23.566Z,20.87
2023-04-06T02:20:50.677Z,27.03
2023-04-06T02:23:17.632Z,21.33
2023-04-06T02:25:44.561Z,21.40
2023-04-06T02:28:11.574Z,21.33
2023-04-06T02:30:38.449Z,18.20
2023-04-06T02:33:05.516Z,22.80
2023-04-06T02:35:33.085Z,22.60
2023-04-06T02:37:59.989Z,24.67
2023-04-06T02:40:26.897Z,21.57
2023-04-06T02:42:53.748Z,20.07
2023-04-06T02:45:21.631Z,22.73
2023-04-06T02:47:48.596Z,22.00
2023-04-06T02:50:15.828Z,16.23
2023-04-06T02:52:43.057Z,19.03
2023-04-06T02:55:10.229Z,19.90
2023-04-06T02:57:37.198Z,22.37
2023-04-06T03:00:04.613Z,21.53
2023-04-06T03:02:31.832Z,18.60
2023-04-06T03:04:58.787Z,21.90
2023-04-06T03:07:25.870Z,21.47
2023-04-06T03:09:52.725Z,22.17
2023-04-06T03:12:19.578Z,14.60
2023-04-06T03:14:46.670Z,21.40
2023-04-06T03:17:13.800Z,21.57
2023-04-06T03:19:40.812Z,22.63
2023-04-06T03:22:07.729Z,19.30
2023-04-06T03:24:34.662Z,23.70
2023-04-06T03:27:01.625Z,20.60
2023-04-06T03:29:28.515Z,20.27
2023-04-06T03:31:55.715Z,23.60
2023-04-06T03:34:22.613Z,19.63
2023-04-06T03:36:56.633Z,20.93
2023-04-06T03:39:33.957Z,20.47
2023-04-06T03:42:00.864Z,18.40
2023-04-06T03:44:27.786Z,18.60
2023-04-06T03:46:54.742Z,25.90
2023-04-06T03:49:21.755Z,18.50
2023-04-06T03:51:48.770Z,23.00
2023-04-06T03:54:15.728Z,19.00
2023-04-06T03:56:42.776Z,26.67
2023-04-06T03:59:10.062Z,22.10
2023-04-06T04:01:37.333Z,23.70
2023-04-06T04:04:04.518Z,20.20
2023-04-06T04:06:31.706Z,21.77
2023-04-06T04:08:58.560Z,25.70
2023-04-06T04:11:25.550Z,23.03
2023-04-06T04:13:52.419Z,20.80
2023-04-06T04:16:19.329Z,21.30
2023-04-06T04:18:48.314Z,19.37
2023-04-06T04:21:15.674Z,23.37
2023-04-06T04:23:42.597Z,26.80
2023-04-06T04:26:09.717Z,20.10
2023-04-06T04:28:36.731Z,20.87
2023-04-06T04:31:03.702Z,21.93
2023-04-06T04:33:30.645Z,22.40
2023-04-06T04:35:57.637Z,22.53
2023-04-06T04:38:24.547Z,19.07
2023-04-06T04:40:51.418Z,16.93
2023-04-06T04:43:18.270Z,30.63
2023-04-06T04:45:45.426Z,25.43
2023-04-06T04:48:12.435Z,26.50
2023-04-06T04:50:39.401Z,19.57
2023-04-06T04:53:07.207Z,35.60
2023-04-06T04:55:34.468Z,21.43
2023-04-06T04:58:01.371Z,24.70
2023-04-06T05:00:28.300Z,22.83
2023-04-06T05:02:55.201Z,18.90
2023-04-06T05:05:22.248Z,22.30
2023-04-06T05:07:49.161Z,26.50
2023-04-06T05:10:16.169Z,33.23
2023-04-06T05:12:43.056Z,23.57
2023-04-06T05:15:10.837Z,19.23
2023-04-06T05:17:37.873Z,22.30
2023-04-06T05:20:05.520Z,24.57
2023-04-06T05:22:32.443Z,23.40
2023-04-06T05:24:59.313Z,24.70
2023-04-06T05:27:26.408Z,29.33
2023-04-06T05:29:54.947Z,24.73
2023-04-06T05:32:24.142Z,24.90
2023-04-06T05:34:51.263Z,25.23
2023-04-06T05:37:18.185Z,28.60
2023-04-06T05:39:45.288Z,25.27
2023-04-06T05:42:12.442Z,24.13
2023-04-06T05:44:39.828Z,22.63
2023-04-06T05:47:06.695Z,30.63
2023-04-06T05:49:33.870Z,19.97
2023-04-06T05:52:00.901Z,24.17
2023-04-06T05:54:28.188Z,23.60
2023-04-06T05:56:55.097Z,26.30
2023-04-06T05:59:22.067Z,26.90
2023-04-06T06:01:49.011Z,30.83
2023-04-06T06:04:16.080Z,29.87
2023-04-06T06:06:43.091Z,30.87
2023-04-06T06:09:10.094Z,30.50
2023-04-06T06:11:38.430Z,24.10
2023-04-06T06:14:05.497Z,21.90
2023-04-06T06:16:32.432Z,33.63
2023-04-06T06:18:59.525Z,28.53
2023-04-06T06:21:26.920Z,27.77
2023-04-06T06:23:55.824Z,18.83
2023-04-06T06:26:23.054Z,19.80
2023-04-06T06:28:49.995Z,28.73
2023-04-06T06:31:17.502Z,25.17
2023-04-06T06:33:44.457Z,22.80
2023-04-06T06:36:11.473Z,25.67
2023-04-06T06:38:39.331Z,25.93
2023-04-06T06:41:06.276Z,29.10
2023-04-06T06:43:33.294Z,20.70
2023-04-06T06:46:00.239Z,19.63
2023-04-06T06:48:27.166Z,31.30
2023-04-06T06:50:54.258Z,27.77
2023-04-06T06:53:21.493Z,22.80
2023-04-06T06:55:50.197Z,34.20
2023-04-06T06:58:19.112Z,22.60
2023-04-06T07:00:46.187Z,25.20
2023-04-06T07:03:13.406Z,18.40
2023-04-06T07:05:41.559Z,39.13
2023-04-06T07:08:08.596Z,22.93
2023-04-06T07:10:36.372Z,25.90
2023-04-06T07:13:03.363Z,25.33
2023-04-06T07:15:31.258Z,23.50
2023-04-06T07:17:58.248Z,26.00
2023-04-06T07:20:25.791Z,28.90
2023-04-06T07:22:52.745Z,25.67
2023-04-06T07:25:19.678Z,33.03
2023-04-06T07:27:46.727Z,31.00
2023-04-06T07:30:13.771Z,23.90
2023-04-06T07:32:40.905Z,20.10
2023-04-06T07:35:08.052Z,22.30
2023-04-06T07:37:35.015Z,31.13
2023-04-06T07:40:01.871Z,19.07
2023-04-06T07:42:28.743Z,31.07
2023-04-06T07:44:55.623Z,26.10
2023-04-06T07:47:24.262Z,28.97
2023-04-06T07:49:51.194Z,39.60
2023-04-06T07:52:18.110Z,29.90
2023-04-06T07:54:45.372Z,23.53
2023-04-06T07:57:12.312Z,21.23
2023-04-06T07:59:39.337Z,21.50
2023-04-06T08:02:06.893Z,17.47
2023-04-06T08:04:33.874Z,20.00
2023-04-06T08:07:00.905Z,31.90
2023-04-06T08:09:28.413Z,24.73
2023-04-06T08:11:55.330Z,25.53
2023-04-06T08:14:22.285Z,16.47
2023-04-06T08:16:49.208Z,17.37
2023-04-06T08:19:18.375Z,18.10
2023-04-06T08:21:46.253Z,20.10
2023-04-06T08:24:13.778Z,19.80
2023-04-06T08:26:40.914Z,32.63
2023-04-06T08:29:10.947Z,17.60
2023-04-06T08:31:38.393Z,19.57
2023-04-06T08:34:07.081Z,25.63
2023-04-06T08:36:34.565Z,25.70
2023-04-06T08:39:02.220Z,24.03
2023-04-06T08:41:29.421Z,24.90
2023-04-06T08:44:01.111Z,25.67
2023-04-06T08:46:32.268Z,21.63
2023-04-06T08:49:01.801Z,25.73
2023-04-06T08:51:29.945Z,20.47
2023-04-06T08:53:59.140Z,16.87
2023-04-06T08:56:27.425Z,19.63
2023-04-06T08:58:56.250Z,23.47
2023-04-06T09:01:26.968Z,19.77
2023-04-06T09:03:58.524Z,19.80
2023-04-06T09:06:28.204Z,16.90
2023-04-06T09:08:56.123Z,19.23
2023-04-06T09:11:23.127Z,17.50
2023-04-06T09:13:55.485Z,23.80
2023-04-06T09:16:23.106Z,21.97
2023-04-06T09:18:50.808Z,19.13
2023-04-06T09:21:20.616Z,35.33
2023-04-06T09:23:59.070Z,24.30
2023-04-06T09:26:26.793Z,21.80
2023-04-06T09:28:56.328Z,23.07
2023-04-06T09:31:28.598Z,27.40
2023-04-06T09:33:56.061Z,24.80
2023-04-06T09:36:33.400Z,21.27
2023-04-06T09:39:05.001Z,22.33
2023-04-06T09:41:38.011Z,19.73
2023-04-06T09:44:09.409Z,17.50
2023-04-06T09:46:57.910Z,23.93
2023-04-06T09:49:29.281Z,20.03
2023-04-06T09:52:00.366Z,20.30
2023-04-06T09:54:30.754Z,21.83
2023-04-06T09:57:21.772Z,18.30
2023-04-06T10:00:09.807Z,16.20
2023-04-06T10:02:48.821Z,19.17
2023-04-06T10:05:28.786Z,20.30
2023-04-06T10:08:00.932Z,17.80
2023-04-06T10:10:30.025Z,18.60
2023-04-06T10:12:57.822Z,19.27
2023-04-06T10:15:25.711Z,17.73
2023-04-06T10:17:53.423Z,34.90
2023-04-06T10:20:21.739Z,21.47
2023-04-06T10:23:00.388Z,22.20
2023-04-06T10:25:31.785Z,21.77
2023-04-06T10:28:07.703Z,23.10
2023-04-06T10:30:35.995Z,18.67
2023-04-06T10:33:17.576Z,15.43
2023-04-06T10:35:44.999Z,17.67
2023-04-06T10:38:13.684Z,14.90
2023-04-06T10:40:42.110Z,25.50
2023-04-06T10:43:14.362Z,16.97
2023-04-06T10:45:44.417Z,11.60
2023-04-06T10:48:19.550Z,21.03
2023-04-06T10:50:49.572Z,16.10
2023-04-06T10:53:27.125Z,12.67
2023-04-06T10:55:57.854Z,13.13
2023-04-06T10:58:28.439Z,11.57
2023-04-06T11:01:00.963Z,9.30
2023-04-06T11:03:28.437Z,18.87
2023-04-06T11:05:55.792Z,9.33
2023-04-06T11:08:35.992Z,16.90
2023-04-06T11:11:12.014Z,9.60
2023-04-06T11:14:00.266Z,11.93
2023-04-06T11:16:31.106Z,14.83
2023-04-06T11:19:00.355Z,12.53
2023-04-06T11:21:40.679Z,10.40
2023-04-06T11:27:42.323Z,9.83
2023-04-06T11:30:10.749Z,13.23
2023-04-06T11:32:45.534Z,13.13
2023-04-06T11:35:20.808Z,11.10
2023-04-06T11:37:47.945Z,9.10
2023-04-06T11:40:14.917Z,8.50
2023-04-06T11:42:41.894Z,8.63
2023-04-06T11:45:10.190Z,13.00
2023-04-06T11:47:38.917Z,10.33
2023-04-06T11:50:13.904Z,11.93
2023-04-06T11:52:43.998Z,10.73
2023-04-06T11:55:16.050Z,9.00
2023-04-06T11:57:43.764Z,9.90
2023-04-06T12:00:12.487Z,9.93
2023-04-06T12:02:40.445Z,8.53
2023-04-06T12:05:09.520Z,9.47
2023-04-06T12:07:37.326Z,11.30
2023-04-06T12:10:04.829Z,7.97
2023-04-06T12:12:32.156Z,7.20
2023-04-06T12:14:59.878Z,7.73
2023-04-06T12:17:27.272Z,6.40
2023-04-06T12:19:54.344Z,9.70
2023-04-06T12:22:21.455Z,7.63
2023-04-06T12:24:48.339Z,10.50
2023-04-06T12:27:15.275Z,7.73
2023-04-06T12:29:43.091Z,9.87
2023-04-06T12:32:10.106Z,7.60
2023-04-06T12:34:37.117Z,10.17
2023-04-06T12:37:04.129Z,6.30
2023-04-06T12:39:31.369Z,6.07
2023-04-06T12:41:58.383Z,7.57
2023-04-06T12:44:26.819Z,9.87
2023-04-06T12:46:54.133Z,7.80
2023-04-06T12:49:21.375Z,8.00
2023-04-06T12:51:48.252Z,10.93
2023-04-06T12:54:15.131Z,10.60
2023-04-06T12:56:42.295Z,11.03
2023-04-06T12:59:09.325Z,12.40
2023-04-06T13:01:36.538Z,13.20
2023-04-06T13:04:03.610Z,15.17
2023-04-06T13:06:31.445Z,10.93
2023-04-06T13:08:58.395Z,11.07
2023-04-06T13:11:28.746Z,10.77
2023-04-06T13:13:56.047Z,10.40
2023-04-06T13:16:23.282Z,11.40
2023-04-06T13:18:51.384Z,16.33
2023-04-06T13:21:18.795Z,10.20
2023-04-06T13:23:45.804Z,14.97
2023-04-06T13:26:14.549Z,10.80
2023-04-06T13:28:41.726Z,11.10
2023-04-06T13:31:09.496Z,10.23
2023-04-06T13:33:36.773Z,13.93
2023-04-06T13:36:04.064Z,12.60
2023-04-06T13:38:31.156Z,14.97
2023-04-06T13:40:58.046Z,11.60
2023-04-06T13:43:27.358Z,12.67
2023-04-06T13:45:59.624Z,15.47
2023-04-06T13:48:27.276Z,16.80
2023-04-06T13:50:54.309Z,19.83
2023-04-06T13:53:21.441Z,17.67
2023-04-06T13:55:55.536Z,15.27
2023-04-06T13:58:22.396Z,17.87
2023-04-06T14:00:49.371Z,13.20
2023-04-06T14:03:16.548Z,15.73
2023-04-06T14:05:43.604Z,15.67
2023-04-06T14:08:10.841Z,14.27
2023-04-06T14:10:42.017Z,20.60
2023-04-06T14:13:09.341Z,16.50
2023-04-06T14:15:36.581Z,17.70
2023-04-06T14:18:03.600Z,19.70
2023-04-06T14:20:33.492Z,19.60
2023-04-06T14:23:04.262Z,15.90
2023-04-06T14:25:35.971Z,13.50
2023-04-06T14:28:03.050Z,18.40
2023-04-06T14:30:31.687Z,18.73
2023-04-06T14:32:59.421Z,18.40
2023-04-06T14:35:29.140Z,19.47
2023-04-06T14:37:58.054Z,19.17
2023-04-06T14:40:25.928Z,24.00
2023-04-06T14:42:52.913Z,20.10
2023-04-06T14:45:21.122Z,20.97
2023-04-06T14:47:48.440Z,20.97
2023-04-06T14:50:15.607Z,19.40
2023-04-06T14:52:42.587Z,22.07
2023-04-06T14:55:09.653Z,18.90
2023-04-06T14:57:36.536Z,20.77
2023-04-06T15:00:04.444Z,20.27
2023-04-06T15:02:33.136Z,19.00
2023-04-06T15:05:00.389Z,20.53
2023-04-06T15:07:27.244Z,18.77
2023-04-06T15:09:54.066Z,22.13
2023-04-06T15:12:21.102Z,19.83
2023-04-06T15:14:47.989Z,22.77
2023-04-06T15:17:14.821Z,20.50
2023-04-06T15:19:41.904Z,19.67
2023-04-06T15:22:08.784Z,18.20
2023-04-06T15:24:35.890Z,19.33
2023-04-06T15:27:03.356Z,15.97
2023-04-06T15:29:33.516Z,21.37
2023-04-06T15:32:00.499Z,19.47
2023-04-06T15:34:31.311Z,16.50
2023-04-06T15:37:02.682Z,18.17
2023-04-06T15:39:29.519Z,21.73
2023-04-06T15:41:57.722Z,14.53
2023-04-06T15:44:25.851Z,17.37
2023-04-06T15:46:53.731Z,18.93
2023-04-06T15:49:21.027Z,16.40
2023-04-06T15:51:49.088Z,14.27
2023-04-06T15:54:16.648Z,22.37
2023-04-06T15:56:43.856Z,16.23
2023-04-06T15:59:10.846Z,15.87
2023-04-06T16:01:37.849Z,14.20
2023-04-06T16:04:08.243Z,17.37
2023-04-06T16:06:35.833Z,12.37
2023-04-06T16:09:04.931Z,14.73
2023-04-06T16:11:32.820Z,13.87
2023-04-06T16:14:00.364Z,12.70
2023-04-06T16:16:27.571Z,13.97
2023-04-06T16:18:54.461Z,17.10
2023-04-06T16:21:21.363Z,17.70
2023-04-06T16:23:48.652Z,18.03
2023-04-06T16:26:18.303Z,19.70
2023-04-06T16:28:48.720Z,21.07
2023-04-06T16:31:22.996Z,16.73
2023-04-06T16:33:51.098Z,13.53
2023-04-06T16:36:25.230Z,18.40
2023-04-06T16:38:52.287Z,16.47
2023-04-06T16:41:19.826Z,17.90
2023-04-06T16:43:46.882Z,21.10
2023-04-06T16:46:13.899Z,18.00
2023-04-06T16:48:40.965Z,21.40
2023-04-06T16:51:08.730Z,20.53
2023-04-06T16:53:37.178Z,23.40
2023-04-06T16:58:37.927Z,21.10
2023-04-06T17:01:06.066Z,24.30
2023-04-06T17:03:34.568Z,27.23
2023-04-06T17:06:01.428Z,20.20
2023-04-06T17:08:28.930Z,17.27
2023-04-06T17:11:03.333Z,18.13
2023-04-06T17:13:31.459Z,16.07
2023-04-06T17:15:58.292Z,16.70
2023-04-06T17:18:25.182Z,18.10
2023-04-06T17:20:52.021Z,23.13
2023-04-06T17:23:18.970Z,18.83
2023-04-06T17:25:46.070Z,14.90
2023-04-06T17:28:12.989Z,15.50
2023-04-06T17:30:40.483Z,13.40
2023-04-06T17:33:07.468Z,12.87
2023-04-06T17:35:34.515Z,12.17
2023-04-06T17:38:02.147Z,14.63
2023-04-06T17:40:29.041Z,14.50
2023-04-06T17:42:55.853Z,15.37
2023-04-06T17:45:22.727Z,16.63
2023-04-06T17:47:49.693Z,21.00
2023-04-06T17:50:16.612Z,15.20
2023-04-06T17:52:46.520Z,18.80
2023-04-06T17:55:13.676Z,21.30
2023-04-06T17:57:43.405Z,21.37
2023-04-06T18:00:12.223Z,28.63
2023-04-06T18:02:39.210Z,20.10
2023-04-06T18:05:07.285Z,21.80
2023-04-06T18:07:34.289Z,19.20
2023-04-06T18:10:02.159Z,20.77
2023-04-06T18:12:29.092Z,22.03
2023-04-06T18:14:56.063Z,13.87
2023-04-06T18:17:23.004Z,20.93
2023-04-06T18:19:49.919Z,18.00
2023-04-06T18:22:16.814Z,15.27
2023-04-06T18:24:43.751Z,17.20
2023-04-06T18:27:13.111Z,13.10
2023-04-06T18:29:40.698Z,14.87
2023-04-06T18:32:07.600Z,12.83
2023-04-06T18:34:35.164Z,12.80
2023-04-06T18:37:02.140Z,13.33
2023-04-06T18:39:29.130Z,13.50
2023-04-06T18:41:56.159Z,12.17
2023-04-06T18:44:23.121Z,12.83
2023-04-06T18:46:52.551Z,11.07
2023-04-06T18:49:21.594Z,12.80
2023-04-06T18:51:48.452Z,13.17
2023-04-06T18:54:16.066Z,22.60
2023-04-06T18:56:42.999Z,12.33
2023-04-06T18:59:12.161Z,12.73
2023-04-06T19:01:43.788Z,16.30
2023-04-06T19:04:12.080Z,16.20
2023-04-06T19:06:39.098Z,13.37
2023-04-06T19:09:06.106Z,13.73
2023-04-06T19:11:33.357Z,15.23
2023-04-06T19:14:00.183Z,15.90
2023-04-06T19:16:27.576Z,12.63
2023-04-06T19:18:55.024Z,14.87
2023-04-06T19:21:23.694Z,14.20
2023-04-06T19:23:55.197Z,12.43
2023-04-06T19:26:23.919Z,12.03
2023-04-06T19:28:51.029Z,11.37
2023-04-06T19:31:19.144Z,11.30
2023-04-06T19:33:47.419Z,21.40
2023-04-06T19:36:14.920Z,11.87
2023-04-06T19:38:42.176Z,12.70
2023-04-06T19:41:09.104Z,11.20
2023-04-06T19:43:36.033Z,13.20
2023-04-06T19:46:03.411Z,13.10
2023-04-06T19:48:30.804Z,15.50
2023-04-06T19:50:57.619Z,19.50
2023-04-06T19:53:24.604Z,12.70
2023-04-06T19:55:51.825Z,25.30
2023-04-06T19:58:19.201Z,14.60
2023-04-06T20:00:46.124Z,13.23
2023-04-06T20:03:13.111Z,13.00
2023-04-06T20:05:40.307Z,13.30
2023-04-06T20:08:07.397Z,11.23
2023-04-06T20:10:34.241Z,12.40
2023-04-06T20:13:04.076Z,17.20
2023-04-06T20:15:31.150Z,10.50
2023-04-06T20:17:58.035Z,12.90
2023-04-06T20:20:25.014Z,11.40
2023-04-06T20:22:51.923Z,15.73
2023-04-06T20:25:19.063Z,11.80
2023-04-06T20:27:46.022Z,10.13
2023-04-06T20:30:16.967Z,10.40
2023-04-06T20:32:44.236Z,10.90
2023-04-06T20:35:11.625Z,14.10
2023-04-06T20:37:38.984Z,10.70
2023-04-06T20:40:06.558Z,9.50
2023-04-06T20:42:34.479Z,11.60
2023-04-06T20:45:03.559Z,17.93
2023-04-06T20:47:31.815Z,8.80
2023-04-06T20:49:58.932Z,9.30
2023-04-06T20:52:26.893Z,10.57
2023-04-06T20:54:54.924Z,12.40
2023-04-06T20:57:22.488Z,12.60
2023-04-06T20:59:49.354Z,9.73
2023-04-06T21:02:16.942Z,15.63
2023-04-06T21:04:45.211Z,9.30
2023-04-06T21:07:12.248Z,10.93
2023-04-06T21:09:40.484Z,10.90
2023-04-06T21:12:07.920Z,10.03
2023-04-06T21:14:35.510Z,8.90
2023-04-06T21:17:02.577Z,13.47
2023-04-06T21:19:29.489Z,11.17
2023-04-06T21:21:56.415Z,9.67
2023-04-06T21:24:23.366Z,10.67
2023-04-06T21:26:50.312Z,14.13
2023-04-06T21:29:17.282Z,13.03
2023-04-06T21:34:29.365Z,14.60
2023-04-06T21:36:56.457Z,13.87
2023-04-06T21:39:27.057Z,11.87
2023-04-06T21:41:53.896Z,15.43
2023-04-06T21:44:21.077Z,14.13
2023-04-06T21:46:48.282Z,14.33
2023-04-06T21:49:15.167Z,17.80
2023-04-06T21:51:42.190Z,18.63
2023-04-06T21:54:09.092Z,18.53
2023-04-06T21:56:35.971Z,22.43
2023-04-06T21:59:02.856Z,15.13
2023-04-06T22:01:29.736Z,15.80
2023-04-06T22:03:56.843Z,15.97
2023-04-06T22:06:25.809Z,19.37
2023-04-06T22:08:52.814Z,20.23
2023-04-06T22:11:22.509Z,19.67
2023-04-06T22:13:49.426Z,23.57
2023-04-06T22:16:18.683Z,16.33
2023-04-06T22:18:45.949Z,22.73
2023-04-06T22:21:12.860Z,19.17
2023-04-06T22:23:42.701Z,19.43
2023-04-06T22:26:11.107Z,21.80
2023-04-06T22:28:38.255Z,21.03
2023-04-06T22:31:05.265Z,21.27
2023-04-06T22:33:32.262Z,26.20
2023-04-06T22:35:59.289Z,24.80
2023-04-06T22:38:26.231Z,28.03
2023-04-06T22:40:53.121Z,35.17
2023-04-06T22:43:19.984Z,24.73
2023-04-06T22:45:46.979Z,26.53
2023-04-06T22:48:13.891Z,25.27
2023-04-06T22:50:41.004Z,21.80
2023-04-06T22:53:07.890Z,30.43
2023-04-06T22:55:34.848Z,26.43
2023-04-06T22:58:01.711Z,23.60
2023-04-06T23:00:28.536Z,29.10
2023-04-06T23:02:55.609Z,29.13
2023-04-06T23:05:22.762Z,32.33
2023-04-06T23:07:51.345Z,28.40
2023-04-06T23:10:20.262Z,30.93
2023-04-06T23:12:48.350Z,29.53
2023-04-06T23:15:15.422Z,35.23
2023-04-06T23:17:42.362Z,42.50
2023-04-06T23:20:09.271Z,38.30
2023-04-06T23:22:36.115Z,29.10
2023-04-06T23:25:03.085Z,43.33
2023-04-06T23:27:29.960Z,45.93
2023-04-06T23:35:18.072Z,52.67
2023-04-06T23:59:13.689Z,70.03
